sensor_id;sensor_type;location;lat;lon;timestamp;temperature;humidity
46037;DHT22;31769;49.304;8.428;2023-05-18T02:03:06;8.30;99.90
46037;DHT22;31769;49.304;8.428;2023-05-18T02:06:08;8.90;99.90
46037;DHT22;31769;49.304;8.428;2023-05-18T02:09:09;8.80;99.90
46037;DHT22;31769;49.304;8.428;2023-05-18T02:12:10;8.80;99.90
46037;DHT22;31769;49.304;8.428;2023-05-18T02:15:11;8.70;99.90
46037;DHT22;31769;49.304;8.428;2023-05-18T02:18:11;8.60;99.90
46037;DHT22;31769;49.304;8.428;2023-05-18T02:21:12;8.60;99.90
46037;DHT22;31769;49.304;8.428;2023-05-18T02:24:13;8.60;99.90
46037;DHT22;31769;49.304;8.428;2023-05-18T02:27:14;8.60;99.90
46037;DHT22;31769;49.304;8.428;2023-05-18T02:30:15;8.60;99.90
46037;DHT22;31769;49.304;8.428;2023-05-18T02:33:16;8.60;99.90
46037;DHT22;31769;49.304;8.428;2023-05-18T02:36:18;8.60;99.90
46037;DHT22;31769;49.304;8.428;2023-05-18T02:39:22;8.60;99.90
46037;DHT22;31769;49.304;8.428;2023-05-18T02:42:22;8.50;99.90
46037;DHT22;31769;49.304;8.428;2023-05-18T02:45:23;8.50;99.90
46037;DHT22;31769;49.304;8.428;2023-05-18T02:48:24;8.50;99.90
46037;DHT22;31769;49.304;8.428;2023-05-18T02:51:25;8.50;99.90
46037;DHT22;31769;49.304;8.428;2023-05-18T02:54:26;8.50;99.90
46037;DHT22;31769;49.304;8.428;2023-05-18T02:57:27;8.50;99.90
46037;DHT22;31769;49.304;8.428;2023-05-18T03:00:34;8.40;99.90
46037;DHT22;31769;49.304;8.428;2023-05-18T03:03:35;8.40;99.90
46037;DHT22;31769;49.304;8.428;2023-05-18T03:06:36;8.40;99.90
46037;DHT22;31769;49.304;8.428;2023-05-18T03:09:37;8.40;99.90
46037;DHT22;31769;49.304;8.428;2023-05-18T03:12:38;8.40;99.90
46037;DHT22;31769;49.304;8.428;2023-05-18T03:15:39;8.40;99.90
46037;DHT22;31769;49.304;8.428;2023-05-18T03:18:40;8.30;99.90
46037;DHT22;31769;49.304;8.428;2023-05-18T03:21:41;8.30;99.90
46037;DHT22;31769;49.304;8.428;2023-05-18T03:24:42;8.20;99.90
46037;DHT22;31769;49.304;8.428;2023-05-18T03:27:48;8.20;99.90
46037;DHT22;31769;49.304;8.428;2023-05-18T03:30:48;8.20;99.90
46037;DHT22;31769;49.304;8.428;2023-05-18T03:33:49;8.10;99.90
46037;DHT22;31769;49.304;8.428;2023-05-18T03:36:50;8.10;99.90
46037;DHT22;31769;49.304;8.428;2023-05-18T03:39:51;8.10;99.90
46037;DHT22;31769;49.304;8.428;2023-05-18T03:42:54;8.00;99.90
46037;DHT22;31769;49.304;8.428;2023-05-18T03:45:54;8.00;99.90
46037;DHT22;31769;49.304;8.428;2023-05-18T03:48:55;8.00;99.90
46037;DHT22;31769;49.304;8.428;2023-05-18T03:52:04;8.00;99.90
46037;DHT22;31769;49.304;8.428;2023-05-18T03:55:05;8.00;99.90
46037;DHT22;31769;49.304;8.428;2023-05-18T03:58:06;8.00;99.90
46037;DHT22;31769;49.304;8.428;2023-05-18T04:01:07;8.00;99.90
46037;DHT22;31769;49.304;8.428;2023-05-18T04:04:08;8.00;99.90
46037;DHT22;31769;49.304;8.428;2023-05-18T04:07:08;8.00;99.90
46037;DHT22;31769;49.304;8.428;2023-05-18T04:10:10;8.00;99.90
46037;DHT22;31769;49.304;8.428;2023-05-18T04:13:11;8.10;99.90
46037;DHT22;31769;49.304;8.428;2023-05-18T04:16:12;8.20;99.90
46037;DHT22;31769;49.304;8.428;2023-05-18T04:19:13;8.30;99.90
46037;DHT22;31769;49.304;8.428;2023-05-18T04:22:14;8.30;99.90
46037;DHT22;31769;49.304;8.428;2023-05-18T04:25:16;8.40;99.90
46037;DHT22;31769;49.304;8.428;2023-05-18T04:28:17;8.60;99.90
46037;DHT22;31769;49.304;8.428;2023-05-18T04:31:18;8.70;99.90
46037;DHT22;31769;49.304;8.428;2023-05-18T04:34:19;8.70;99.90
46037;DHT22;31769;49.304;8.428;2023-05-18T04:37:21;8.80;99.90
46037;DHT22;31769;49.304;8.428;2023-05-18T04:40:22;8.80;99.90
46037;DHT22;31769;49.304;8.428;2023-05-18T04:43:25;8.90;99.90
46037;DHT22;31769;49.304;8.428;2023-05-18T04:46:28;8.90;99.90
46037;DHT22;31769;49.304;8.428;2023-05-18T04:49:28;8.90;99.90
46037;DHT22;31769;49.304;8.428;2023-05-18T04:52:31;8.90;99.90
46037;DHT22;31769;49.304;8.428;2023-05-18T04:55:36;9.00;99.90
46037;DHT22;31769;49.304;8.428;2023-05-18T04:58:43;9.10;99.90
46037;DHT22;31769;49.304;8.428;2023-05-18T05:01:46;9.10;99.90
46037;DHT22;31769;49.304;8.428;2023-05-18T05:04:47;9.20;99.90
46037;DHT22;31769;49.304;8.428;2023-05-18T05:07:52;9.30;99.90
46037;DHT22;31769;49.304;8.428;2023-05-18T05:10:53;9.30;99.90
46037;DHT22;31769;49.304;8.428;2023-05-18T05:13:53;9.50;99.90
46037;DHT22;31769;49.304;8.428;2023-05-18T05:16:54;9.50;99.90
46037;DHT22;31769;49.304;8.428;2023-05-18T05:19:55;9.60;99.90
46037;DHT22;31769;49.304;8.428;2023-05-18T05:22:56;9.70;99.90
46037;DHT22;31769;49.304;8.428;2023-05-18T05:25:59;9.70;99.90
46037;DHT22;31769;49.304;8.428;2023-05-18T05:29:01;9.80;99.90
46037;DHT22;31769;49.304;8.428;2023-05-18T05:32:02;9.90;99.90
46037;DHT22;31769;49.304;8.428;2023-05-18T05:35:03;10.10;99.90
46037;DHT22;31769;49.304;8.428;2023-05-18T05:38:05;10.20;99.90
46037;DHT22;31769;49.304;8.428;2023-05-18T05:41:06;10.30;99.90
46037;DHT22;31769;49.304;8.428;2023-05-18T05:44:10;10.40;99.90
46037;DHT22;31769;49.304;8.428;2023-05-18T05:47:11;10.60;99.90
46037;DHT22;31769;49.304;8.428;2023-05-18T05:50:12;10.70;99.90
46037;DHT22;31769;49.304;8.428;2023-05-18T05:53:13;10.80;99.90
46037;DHT22;31769;49.304;8.428;2023-05-18T05:56:17;10.90;99.90
46037;DHT22;31769;49.304;8.428;2023-05-18T05:59:18;11.00;99.90
46037;DHT22;31769;49.304;8.428;2023-05-18T06:02:19;11.00;99.90
46037;DHT22;31769;49.304;8.428;2023-05-18T06:05:20;11.10;99.90
46037;DHT22;31769;49.304;8.428;2023-05-18T06:08:21;11.10;99.90
46037;DHT22;31769;49.304;8.428;2023-05-18T06:11:24;11.30;99.90
46037;DHT22;31769;49.304;8.428;2023-05-18T06:14:26;11.50;99.90
46037;DHT22;31769;49.304;8.428;2023-05-18T06:17:28;11.60;99.90
46037;DHT22;31769;49.304;8.428;2023-05-18T06:20:30;11.60;99.90
46037;DHT22;31769;49.304;8.428;2023-05-18T06:23:31;11.70;99.90
46037;DHT22;31769;49.304;8.428;2023-05-18T06:26:50;11.80;99.90
46037;DHT22;31769;49.304;8.428;2023-05-18T06:30:08;11.80;99.90
46037;DHT22;31769;49.304;8.428;2023-05-18T06:33:29;11.80;99.90
46037;DHT22;31769;49.304;8.428;2023-05-18T06:36:31;11.90;99.90
46037;DHT22;31769;49.304;8.428;2023-05-18T06:39:32;12.10;99.90
46037;DHT22;31769;49.304;8.428;2023-05-18T06:42:33;12.20;99.90
46037;DHT22;31769;49.304;8.428;2023-05-18T06:45:54;12.30;99.90
46037;DHT22;31769;49.304;8.428;2023-05-18T06:49:11;12.50;99.90
46037;DHT22;31769;49.304;8.428;2023-05-18T06:52:11;12.60;99.90
46037;DHT22;31769;49.304;8.428;2023-05-18T06:55:14;12.80;99.90
46037;DHT22;31769;49.304;8.428;2023-05-18T06:58:15;13.00;99.90
46037;DHT22;31769;49.304;8.428;2023-05-18T07:01:16;13.30;99.90
46037;DHT22;31769;49.304;8.428;2023-05-18T07:04:18;13.40;99.90
46037;DHT22;31769;49.304;8.428;2023-05-18T07:07:19;13.60;99.90
46037;DHT22;31769;49.304;8.428;2023-05-18T07:10:20;13.80;99.90
46037;DHT22;31769;49.304;8.428;2023-05-18T07:13:22;13.80;99.90
46037;DHT22;31769;49.304;8.428;2023-05-18T07:16:25;13.80;99.90
46037;DHT22;31769;49.304;8.428;2023-05-18T07:19:26;13.80;99.90
46037;DHT22;31769;49.304;8.428;2023-05-18T07:22:26;13.90;99.90
46037;DHT22;31769;49.304;8.428;2023-05-18T07:25:27;14.00;99.90
46037;DHT22;31769;49.304;8.428;2023-05-18T07:28:28;14.10;99.90
46037;DHT22;31769;49.304;8.428;2023-05-18T07:31:28;14.20;99.90
46037;DHT22;31769;49.304;8.428;2023-05-18T07:34:30;14.40;99.90
46037;DHT22;31769;49.304;8.428;2023-05-18T07:37:30;14.60;99.90
46037;DHT22;31769;49.304;8.428;2023-05-18T07:40:31;14.80;99.90
46037;DHT22;31769;49.304;8.428;2023-05-18T07:43:32;14.90;99.90
46037;DHT22;31769;49.304;8.428;2023-05-18T07:46:32;14.90;99.90
46037;DHT22;31769;49.304;8.428;2023-05-18T07:49:33;15.00;99.90
46037;DHT22;31769;49.304;8.428;2023-05-18T07:52:34;15.10;99.90
46037;DHT22;31769;49.304;8.428;2023-05-18T07:55:34;15.20;99.90
46037;DHT22;31769;49.304;8.428;2023-05-18T07:58:35;15.30;99.90
46037;DHT22;31769;49.304;8.428;2023-05-18T08:01:36;15.50;99.40
46037;DHT22;31769;49.304;8.428;2023-05-18T08:04:37;15.50;99.10
46037;DHT22;31769;49.304;8.428;2023-05-18T08:07:38;15.60;98.60
46037;DHT22;31769;49.304;8.428;2023-05-18T08:10:39;15.70;98.80
46037;DHT22;31769;49.304;8.428;2023-05-18T08:13:39;15.70;98.80
46037;DHT22;31769;49.304;8.428;2023-05-18T08:16:40;15.90;98.30
46037;DHT22;31769;49.304;8.428;2023-05-18T08:19:41;15.90;98.20
46037;DHT22;31769;49.304;8.428;2023-05-18T08:22:41;15.90;98.00
46037;DHT22;31769;49.304;8.428;2023-05-18T08:25:42;16.00;98.00
46037;DHT22;31769;49.304;8.428;2023-05-18T08:28:43;16.10;97.10
46037;DHT22;31769;49.304;8.428;2023-05-18T08:31:44;16.00;97.30
46037;DHT22;31769;49.304;8.428;2023-05-18T08:34:45;16.10;97.40
46037;DHT22;31769;49.304;8.428;2023-05-18T08:37:47;16.20;97.40
46037;DHT22;31769;49.304;8.428;2023-05-18T08:44:11;16.50;97.10
46037;DHT22;31769;49.304;8.428;2023-05-18T08:47:13;16.70;96.70
46037;DHT22;31769;49.304;8.428;2023-05-18T08:50:19;16.60;96.50
46037;DHT22;31769;49.304;8.428;2023-05-18T08:53:20;16.70;96.10
46037;DHT22;31769;49.304;8.428;2023-05-18T08:56:24;16.80;95.80
46037;DHT22;31769;49.304;8.428;2023-05-18T08:59:30;16.80;95.20
46037;DHT22;31769;49.304;8.428;2023-05-18T09:02:32;16.90;94.80
46037;DHT22;31769;49.304;8.428;2023-05-18T09:05:33;17.00;94.60
46037;DHT22;31769;49.304;8.428;2023-05-18T09:08:34;17.20;95.00
46037;DHT22;31769;49.304;8.428;2023-05-18T09:11:35;17.30;94.30
46037;DHT22;31769;49.304;8.428;2023-05-18T09:14:38;17.30;94.30
46037;DHT22;31769;49.304;8.428;2023-05-18T09:17:41;17.40;94.00
46037;DHT22;31769;49.304;8.428;2023-05-18T09:20:42;17.50;93.80
46037;DHT22;31769;49.304;8.428;2023-05-18T09:23:43;17.60;93.80
46037;DHT22;31769;49.304;8.428;2023-05-18T09:26:44;17.70;93.50
46037;DHT22;31769;49.304;8.428;2023-05-18T09:29:56;17.90;93.20
46037;DHT22;31769;49.304;8.428;2023-05-18T09:32:56;18.20;92.40
46037;DHT22;31769;49.304;8.428;2023-05-18T09:35:58;18.40;91.60
46037;DHT22;31769;49.304;8.428;2023-05-18T09:38:59;18.70;90.90
46037;DHT22;31769;49.304;8.428;2023-05-18T09:42:02;18.80;90.70
46037;DHT22;31769;49.304;8.428;2023-05-18T09:45:15;19.10;90.00
46037;DHT22;31769;49.304;8.428;2023-05-18T09:48:16;19.50;89.20
46037;DHT22;31769;49.304;8.428;2023-05-18T09:51:17;19.80;86.50
46037;DHT22;31769;49.304;8.428;2023-05-18T09:54:18;20.10;83.50
46037;DHT22;31769;49.304;8.428;2023-05-18T09:57:19;20.20;80.30
46037;DHT22;31769;49.304;8.428;2023-05-18T10:00:21;19.90;79.60
46037;DHT22;31769;49.304;8.428;2023-05-18T10:03:23;20.20;79.80
46037;DHT22;31769;49.304;8.428;2023-05-18T10:06:26;20.50;78.90
46037;DHT22;31769;49.304;8.428;2023-05-18T10:09:27;20.50;77.00
46037;DHT22;31769;49.304;8.428;2023-05-18T10:12:31;20.60;75.80
46037;DHT22;31769;49.304;8.428;2023-05-18T10:15:34;20.60;76.40
46037;DHT22;31769;49.304;8.428;2023-05-18T10:18:35;20.40;75.00
46037;DHT22;31769;49.304;8.428;2023-05-18T10:21:37;19.90;74.10
46037;DHT22;31769;49.304;8.428;2023-05-18T10:24:41;19.70;76.00
46037;DHT22;31769;49.304;8.428;2023-05-18T10:27:46;19.80;76.90
46037;DHT22;31769;49.304;8.428;2023-05-18T10:30:47;19.90;76.60
46037;DHT22;31769;49.304;8.428;2023-05-18T10:33:49;20.00;76.00
46037;DHT22;31769;49.304;8.428;2023-05-18T10:36:51;20.10;75.10
46037;DHT22;31769;49.304;8.428;2023-05-18T10:39:53;20.30;74.50
46037;DHT22;31769;49.304;8.428;2023-05-18T10:42:56;20.50;73.50
46037;DHT22;31769;49.304;8.428;2023-05-18T10:45:59;20.50;73.80
46037;DHT22;31769;49.304;8.428;2023-05-18T10:49:02;20.50;73.60
46037;DHT22;31769;49.304;8.428;2023-05-18T10:52:05;20.60;73.90
46037;DHT22;31769;49.304;8.428;2023-05-18T10:55:07;20.80;73.50
46037;DHT22;31769;49.304;8.428;2023-05-18T10:58:11;21.00;73.40
46037;DHT22;31769;49.304;8.428;2023-05-18T11:01:14;21.40;71.80
46037;DHT22;31769;49.304;8.428;2023-05-18T11:04:15;21.60;69.70
46037;DHT22;31769;49.304;8.428;2023-05-18T11:07:16;21.60;69.30
46037;DHT22;31769;49.304;8.428;2023-05-18T11:10:17;21.60;68.30
46037;DHT22;31769;49.304;8.428;2023-05-18T11:13:17;21.50;69.30
46037;DHT22;31769;49.304;8.428;2023-05-18T11:16:34;21.60;69.70
46037;DHT22;31769;49.304;8.428;2023-05-18T11:19:35;21.60;68.70
46037;DHT22;31769;49.304;8.428;2023-05-18T11:25:48;21.90;67.80
46037;DHT22;31769;49.304;8.428;2023-05-18T11:28:51;21.40;66.90
46037;DHT22;31769;49.304;8.428;2023-05-18T11:31:53;21.10;67.30
46037;DHT22;31769;49.304;8.428;2023-05-18T11:34:55;21.10;66.60
46037;DHT22;31769;49.304;8.428;2023-05-18T11:38:08;21.60;67.90
46037;DHT22;31769;49.304;8.428;2023-05-18T11:41:28;22.10;67.70
46037;DHT22;31769;49.304;8.428;2023-05-18T11:44:29;22.40;67.30
46037;DHT22;31769;49.304;8.428;2023-05-18T11:47:32;22.30;66.40
46037;DHT22;31769;49.304;8.428;2023-05-18T11:50:33;22.60;65.20
46037;DHT22;31769;49.304;8.428;2023-05-18T11:53:34;22.90;64.70
46037;DHT22;31769;49.304;8.428;2023-05-18T11:56:34;23.10;61.90
46037;DHT22;31769;49.304;8.428;2023-05-18T11:59:37;23.10;62.50
46037;DHT22;31769;49.304;8.428;2023-05-18T12:02:42;23.30;61.90
46037;DHT22;31769;49.304;8.428;2023-05-18T12:05:43;23.20;61.80
46037;DHT22;31769;49.304;8.428;2023-05-18T12:08:48;23.20;60.70
46037;DHT22;31769;49.304;8.428;2023-05-18T12:11:51;23.40;60.70
46037;DHT22;31769;49.304;8.428;2023-05-18T12:15:05;24.20;60.40
46037;DHT22;31769;49.304;8.428;2023-05-18T12:18:06;25.20;59.50
46037;DHT22;31769;49.304;8.428;2023-05-18T12:21:06;25.70;55.90
46037;DHT22;31769;49.304;8.428;2023-05-18T12:24:07;25.90;55.80
46037;DHT22;31769;49.304;8.428;2023-05-18T12:27:10;26.40;56.10
46037;DHT22;31769;49.304;8.428;2023-05-18T12:30:15;26.70;55.60
46037;DHT22;31769;49.304;8.428;2023-05-18T12:33:16;27.60;54.10
46037;DHT22;31769;49.304;8.428;2023-05-18T12:36:17;29.00;51.40
46037;DHT22;31769;49.304;8.428;2023-05-18T12:39:17;30.90;48.70
46037;DHT22;31769;49.304;8.428;2023-05-18T12:42:18;33.00;46.20
46037;DHT22;31769;49.304;8.428;2023-05-18T12:45:24;35.00;44.00
46037;DHT22;31769;49.304;8.428;2023-05-18T12:48:25;37.40;41.10
46037;DHT22;31769;49.304;8.428;2023-05-18T12:51:36;39.30;38.80
46037;DHT22;31769;49.304;8.428;2023-05-18T12:54:54;41.40;36.50
46037;DHT22;31769;49.304;8.428;2023-05-18T13:01:11;44.10;34.00
46037;DHT22;31769;49.304;8.428;2023-05-18T13:04:12;45.30;32.20
46037;DHT22;31769;49.304;8.428;2023-05-18T13:07:12;46.10;31.80
46037;DHT22;31769;49.304;8.428;2023-05-18T13:10:16;46.60;30.40
46037;DHT22;31769;49.304;8.428;2023-05-18T13:13:17;46.50;30.50
46037;DHT22;31769;49.304;8.428;2023-05-18T13:16:18;44.60;30.50
46037;DHT22;31769;49.304;8.428;2023-05-18T13:19:18;41.80;31.50
46037;DHT22;31769;49.304;8.428;2023-05-18T13:22:19;38.90;33.40
46037;DHT22;31769;49.304;8.428;2023-05-18T13:25:20;38.20;34.10
46037;DHT22;31769;49.304;8.428;2023-05-18T13:28:21;40.80;33.00
46037;DHT22;31769;49.304;8.428;2023-05-18T13:31:22;44.30;31.30
46037;DHT22;31769;49.304;8.428;2023-05-18T13:34:22;46.70;30.20
46037;DHT22;31769;49.304;8.428;2023-05-18T13:37:23;48.70;29.60
46037;DHT22;31769;49.304;8.428;2023-05-18T13:40:24;50.10;29.30
46037;DHT22;31769;49.304;8.428;2023-05-18T13:43:24;50.80;28.50
46037;DHT22;31769;49.304;8.428;2023-05-18T13:46:25;49.60;28.50
46037;DHT22;31769;49.304;8.428;2023-05-18T13:49:26;47.70;28.80
46037;DHT22;31769;49.304;8.428;2023-05-18T13:52:26;47.00;28.80
46037;DHT22;31769;49.304;8.428;2023-05-18T13:55:27;47.50;29.10
46037;DHT22;31769;49.304;8.428;2023-05-18T13:58:28;49.20;28.80
46037;DHT22;31769;49.304;8.428;2023-05-18T14:01:28;48.20;28.50
46037;DHT22;31769;49.304;8.428;2023-05-18T14:04:31;44.20;29.90
46037;DHT22;31769;49.304;8.428;2023-05-18T14:07:32;40.70;30.60
46037;DHT22;31769;49.304;8.428;2023-05-18T14:10:33;40.20;31.10
46037;DHT22;31769;49.304;8.428;2023-05-18T14:13:33;43.50;30.50
46037;DHT22;31769;49.304;8.428;2023-05-18T14:16:34;44.20;29.50
46037;DHT22;31769;49.304;8.428;2023-05-18T14:19:36;43.60;29.70
46037;DHT22;31769;49.304;8.428;2023-05-18T14:22:36;43.10;29.40
46037;DHT22;31769;49.304;8.428;2023-05-18T14:25:37;41.90;29.90
46037;DHT22;31769;49.304;8.428;2023-05-18T14:28:38;43.90;29.40
46037;DHT22;31769;49.304;8.428;2023-05-18T14:31:39;46.30;28.90
46037;DHT22;31769;49.304;8.428;2023-05-18T14:34:39;48.70;28.70
46037;DHT22;31769;49.304;8.428;2023-05-18T14:37:40;50.90;28.10
46037;DHT22;31769;49.304;8.428;2023-05-18T14:40:41;52.20;28.30
46037;DHT22;31769;49.304;8.428;2023-05-18T14:43:42;51.30;27.60
46037;DHT22;31769;49.304;8.428;2023-05-18T14:46:42;47.10;28.30
46037;DHT22;31769;49.304;8.428;2023-05-18T14:49:43;42.20;29.60
46037;DHT22;31769;49.304;8.428;2023-05-18T14:52:43;39.60;30.40
46037;DHT22;31769;49.304;8.428;2023-05-18T14:55:44;40.20;30.30
46037;DHT22;31769;49.304;8.428;2023-05-18T14:58:45;41.40;30.00
46037;DHT22;31769;49.304;8.428;2023-05-18T15:01:45;44.60;29.40
46037;DHT22;31769;49.304;8.428;2023-05-18T15:04:46;47.00;28.40
46037;DHT22;31769;49.304;8.428;2023-05-18T15:07:47;48.50;28.00
46037;DHT22;31769;49.304;8.428;2023-05-18T15:10:47;46.20;28.40
46037;DHT22;31769;49.304;8.428;2023-05-18T15:13:49;44.20;29.00
46037;DHT22;31769;49.304;8.428;2023-05-18T15:16:50;40.40;30.00
46037;DHT22;31769;49.304;8.428;2023-05-18T15:19:51;37.00;31.50
46037;DHT22;31769;49.304;8.428;2023-05-18T15:22:52;34.40;33.00
46037;DHT22;31769;49.304;8.428;2023-05-18T15:25:52;32.40;34.50
46037;DHT22;31769;49.304;8.428;2023-05-18T15:28:53;31.40;35.20
46037;DHT22;31769;49.304;8.428;2023-05-18T15:31:54;32.80;34.40
46037;DHT22;31769;49.304;8.428;2023-05-18T15:34:55;32.80;34.60
46037;DHT22;31769;49.304;8.428;2023-05-18T15:37:56;35.20;33.10
46037;DHT22;31769;49.304;8.428;2023-05-18T15:40:56;38.70;31.30
46037;DHT22;31769;49.304;8.428;2023-05-18T15:43:57;41.30;30.10
46037;DHT22;31769;49.304;8.428;2023-05-18T15:46:57;43.30;29.40
46037;DHT22;31769;49.304;8.428;2023-05-18T15:49:58;44.00;29.20
46037;DHT22;31769;49.304;8.428;2023-05-18T15:52:59;43.60;29.20
46037;DHT22;31769;49.304;8.428;2023-05-18T15:56:00;40.90;30.10
46037;DHT22;31769;49.304;8.428;2023-05-18T15:59:00;37.60;31.80
46037;DHT22;31769;49.304;8.428;2023-05-18T16:02:01;34.70;33.50
46037;DHT22;31769;49.304;8.428;2023-05-18T16:05:02;32.50;35.00
46037;DHT22;31769;49.304;8.428;2023-05-18T16:08:03;30.60;36.50
46037;DHT22;31769;49.304;8.428;2023-05-18T16:11:03;29.10;37.80
46037;DHT22;31769;49.304;8.428;2023-05-18T16:14:06;28.00;38.80
46037;DHT22;31769;49.304;8.428;2023-05-18T16:17:07;27.50;39.50
46037;DHT22;31769;49.304;8.428;2023-05-18T16:20:08;27.00;40.00
46037;DHT22;31769;49.304;8.428;2023-05-18T16:23:09;29.50;38.40
46037;DHT22;31769;49.304;8.428;2023-05-18T16:26:10;33.30;35.20
46037;DHT22;31769;49.304;8.428;2023-05-18T16:29:11;35.10;34.00
46037;DHT22;31769;49.304;8.428;2023-05-18T16:32:11;33.30;34.10
46037;DHT22;31769;49.304;8.428;2023-05-18T16:35:12;31.40;35.60
46037;DHT22;31769;49.304;8.428;2023-05-18T16:38:13;29.60;37.50
46037;DHT22;31769;49.304;8.428;2023-05-18T16:41:13;28.30;38.90
46037;DHT22;31769;49.304;8.428;2023-05-18T16:44:15;27.20;40.00
46037;DHT22;31769;49.304;8.428;2023-05-18T16:47:16;26.20;41.20
46037;DHT22;31769;49.304;8.428;2023-05-18T16:50:17;25.50;42.10
46037;DHT22;31769;49.304;8.428;2023-05-18T16:53:18;24.90;42.70
46037;DHT22;31769;49.304;8.428;2023-05-18T16:56:18;24.50;43.20
46037;DHT22;31769;49.304;8.428;2023-05-18T16:59:21;24.20;43.80
46037;DHT22;31769;49.304;8.428;2023-05-18T17:02:22;24.10;44.00
46037;DHT22;31769;49.304;8.428;2023-05-18T17:05:23;23.90;44.40
46037;DHT22;31769;49.304;8.428;2023-05-18T17:08:24;23.80;44.70
46037;DHT22;31769;49.304;8.428;2023-05-18T17:11:25;23.60;45.10
46037;DHT22;31769;49.304;8.428;2023-05-18T17:14:26;23.40;45.30
46037;DHT22;31769;49.304;8.428;2023-05-18T17:17:27;23.30;45.80
46037;DHT22;31769;49.304;8.428;2023-05-18T17:20:28;23.10;46.10
46037;DHT22;31769;49.304;8.428;2023-05-18T17:23:29;23.70;45.70
46037;DHT22;31769;49.304;8.428;2023-05-18T17:26:29;24.20;44.90
46037;DHT22;31769;49.304;8.428;2023-05-18T17:29:32;24.90;44.30
46037;DHT22;31769;49.304;8.428;2023-05-18T17:32:33;26.20;43.00
46037;DHT22;31769;49.304;8.428;2023-05-18T17:35:34;27.20;41.90
46037;DHT22;31769;49.304;8.428;2023-05-18T17:38:35;27.40;42.20
46037;DHT22;31769;49.304;8.428;2023-05-18T17:41:35;26.70;42.00
46037;DHT22;31769;49.304;8.428;2023-05-18T17:44:36;26.00;43.10
46037;DHT22;31769;49.304;8.428;2023-05-18T17:47:37;25.00;44.10
46037;DHT22;31769;49.304;8.428;2023-05-18T17:50:37;24.00;45.40
46037;DHT22;31769;49.304;8.428;2023-05-18T17:53:39;23.20;46.40
46037;DHT22;31769;49.304;8.428;2023-05-18T17:56:41;22.60;47.30
46037;DHT22;31769;49.304;8.428;2023-05-18T17:59:42;22.10;48.10
46037;DHT22;31769;49.304;8.428;2023-05-18T18:02:43;21.70;48.70
46037;DHT22;31769;49.304;8.428;2023-05-18T18:05:44;21.30;49.00
46037;DHT22;31769;49.304;8.428;2023-05-18T18:08:44;21.30;49.50
46037;DHT22;31769;49.304;8.428;2023-05-18T18:11:45;21.10;50.10
46037;DHT22;31769;49.304;8.428;2023-05-18T18:14:46;20.90;50.40
46037;DHT22;31769;49.304;8.428;2023-05-18T18:17:46;20.60;51.00
46037;DHT22;31769;49.304;8.428;2023-05-18T18:20:47;20.30;51.60
46037;DHT22;31769;49.304;8.428;2023-05-18T18:23:48;20.00;52.20
46037;DHT22;31769;49.304;8.428;2023-05-18T18:26:48;19.80;52.80
46037;DHT22;31769;49.304;8.428;2023-05-18T18:29:51;19.50;53.80
46037;DHT22;31769;49.304;8.428;2023-05-18T18:32:52;19.30;54.40
46037;DHT22;31769;49.304;8.428;2023-05-18T18:35:54;19.10;55.10
46037;DHT22;31769;49.304;8.428;2023-05-18T18:38:55;19.00;55.40
46037;DHT22;31769;49.304;8.428;2023-05-18T18:41:56;18.80;55.80
46037;DHT22;31769;49.304;8.428;2023-05-18T18:44:56;18.60;56.00
46037;DHT22;31769;49.304;8.428;2023-05-18T18:47:58;18.40;56.60
46037;DHT22;31769;49.304;8.428;2023-05-18T18:50:59;18.20;57.00
46037;DHT22;31769;49.304;8.428;2023-05-18T18:53:59;18.00;57.60
46037;DHT22;31769;49.304;8.428;2023-05-18T18:57:00;17.80;58.10
46037;DHT22;31769;49.304;8.428;2023-05-18T19:00:01;17.60;59.40
46037;DHT22;31769;49.304;8.428;2023-05-18T19:03:02;17.40;59.20
46037;DHT22;31769;49.304;8.428;2023-05-18T19:06:03;17.20;59.70
46037;DHT22;31769;49.304;8.428;2023-05-18T19:09:04;17.10;60.60
46037;DHT22;31769;49.304;8.428;2023-05-18T19:12:05;17.00;60.50
46037;DHT22;31769;49.304;8.428;2023-05-18T19:15:06;16.80;60.90
46037;DHT22;31769;49.304;8.428;2023-05-18T19:18:07;16.60;61.00
46037;DHT22;31769;49.304;8.428;2023-05-18T19:21:08;16.50;61.70
46037;DHT22;31769;49.304;8.428;2023-05-18T19:24:08;16.40;61.80
46037;DHT22;31769;49.304;8.428;2023-05-18T19:27:09;16.30;62.20
46037;DHT22;31769;49.304;8.428;2023-05-18T19:30:10;16.20;62.60
46037;DHT22;31769;49.304;8.428;2023-05-18T19:33:15;16.10;63.00
46037;DHT22;31769;49.304;8.428;2023-05-18T19:36:16;16.00;63.40
46037;DHT22;31769;49.304;8.428;2023-05-18T19:39:17;16.00;63.00
46037;DHT22;31769;49.304;8.428;2023-05-18T19:42:18;15.90;63.20
46037;DHT22;31769;49.304;8.428;2023-05-18T19:45:19;15.90;63.40
46037;DHT22;31769;49.304;8.428;2023-05-18T19:48:20;15.90;63.80
46037;DHT22;31769;49.304;8.428;2023-05-18T19:51:20;15.80;64.10
46037;DHT22;31769;49.304;8.428;2023-05-18T19:54:21;15.80;64.30
46037;DHT22;31769;49.304;8.428;2023-05-18T19:57:22;15.80;64.40
46037;DHT22;31769;49.304;8.428;2023-05-18T20:00:22;15.70;64.70
46037;DHT22;31769;49.304;8.428;2023-05-18T20:03:24;15.70;64.90
46037;DHT22;31769;49.304;8.428;2023-05-18T20:10:49;15.60;65.20
46037;DHT22;31769;49.304;8.428;2023-05-18T20:13:53;15.60;65.20
46037;DHT22;31769;49.304;8.428;2023-05-18T20:16:53;15.50;65.20
46037;DHT22;31769;49.304;8.428;2023-05-18T20:19:55;15.50;65.30
46037;DHT22;31769;49.304;8.428;2023-05-18T20:22:56;15.40;65.30
46037;DHT22;31769;49.304;8.428;2023-05-18T20:25:56;15.40;65.60
46037;DHT22;31769;49.304;8.428;2023-05-18T20:28:57;15.30;65.80
46037;DHT22;31769;49.304;8.428;2023-05-18T20:31:57;15.30;66.30
46037;DHT22;31769;49.304;8.428;2023-05-18T20:34:58;15.30;66.80
46037;DHT22;31769;49.304;8.428;2023-05-18T20:38:00;15.20;67.50
46037;DHT22;31769;49.304;8.428;2023-05-18T20:41:01;15.20;68.10
46037;DHT22;31769;49.304;8.428;2023-05-18T20:44:01;15.10;68.50
46037;DHT22;31769;49.304;8.428;2023-05-18T20:47:02;15.00;68.80
46037;DHT22;31769;49.304;8.428;2023-05-18T20:50:03;15.00;69.30
46037;DHT22;31769;49.304;8.428;2023-05-18T20:53:04;14.90;69.70
46037;DHT22;31769;49.304;8.428;2023-05-18T20:56:05;14.90;70.20
46037;DHT22;31769;49.304;8.428;2023-05-18T20:59:06;14.90;70.60
46037;DHT22;31769;49.304;8.428;2023-05-18T21:02:09;14.80;70.80
46037;DHT22;31769;49.304;8.428;2023-05-18T21:05:10;14.70;71.20
46037;DHT22;31769;49.304;8.428;2023-05-18T21:08:11;14.70;71.90
46037;DHT22;31769;49.304;8.428;2023-05-18T21:11:12;14.60;72.50
46037;DHT22;31769;49.304;8.428;2023-05-18T21:14:12;14.60;73.50
46037;DHT22;31769;49.304;8.428;2023-05-18T21:17:13;14.60;73.00
46037;DHT22;31769;49.304;8.428;2023-05-18T21:20:14;14.60;73.50
46037;DHT22;31769;49.304;8.428;2023-05-18T21:23:15;14.60;74.00
46037;DHT22;31769;49.304;8.428;2023-05-18T21:26:16;14.60;74.20